sensor_id;sensor_type;location;lat;lon;timestamp;pressure;altitude;pressure_sealevel;temperature;humidity
60437;BME280;46289;51.992;4.498;2023-04-16T00:00:34;102533.66;;;7.91;82.98
60437;BME280;46289;51.992;4.498;2023-04-16T00:02:39;102534.50;;;7.95;83.28
60437;BME280;46289;51.992;4.498;2023-04-16T00:04:45;102547.59;;;7.93;83.33
60437;BME280;46289;51.992;4.498;2023-04-16T00:06:50;102551.06;;;8.00;83.40
60437;BME280;46289;51.992;4.498;2023-04-16T00:08:55;102555.47;;;7.93;83.58
60437;BME280;46289;51.992;4.498;2023-04-16T00:11:02;102554.59;;;7.93;83.31
60437;BME280;46289;51.992;4.498;2023-04-16T00:13:07;102556.31;;;7.95;83.23
60437;BME280;46289;51.992;4.498;2023-04-16T00:15:12;102545.84;;;7.94;83.60
60437;BME280;46289;51.992;4.498;2023-04-16T00:17:22;102542.34;;;7.95;83.01
60437;BME280;46289;51.992;4.498;2023-04-16T00:19:27;102552.88;;;7.82;83.29
60437;BME280;46289;51.992;4.498;2023-04-16T00:21:33;102548.50;;;7.86;83.25
60437;BME280;46289;51.992;4.498;2023-04-16T00:23:40;102556.31;;;7.92;83.39
60437;BME280;46289;51.992;4.498;2023-04-16T00:25:45;102550.22;;;7.87;83.53
60437;BME280;46289;51.992;4.498;2023-04-16T00:27:50;102552.84;;;7.85;83.27
60437;BME280;46289;51.992;4.498;2023-04-16T00:29:55;102555.47;;;7.82;83.03
60437;BME280;46289;51.992;4.498;2023-04-16T00:32:00;102555.47;;;7.81;83.25
60437;BME280;46289;51.992;4.498;2023-04-16T00:34:08;102551.97;;;7.86;83.02
60437;BME280;46289;51.992;4.498;2023-04-16T00:36:13;102545.00;;;7.85;82.95
60437;BME280;46289;51.992;4.498;2023-04-16T00:38:21;102545.88;;;7.87;83.02
60437;BME280;46289;51.992;4.498;2023-04-16T00:40:28;102538.91;;;7.80;83.30
60437;BME280;46289;51.992;4.498;2023-04-16T00:42:33;102531.91;;;7.85;82.94
60437;BME280;46289;51.992;4.498;2023-04-16T00:44:40;102532.78;;;7.81;83.02
60437;BME280;46289;51.992;4.498;2023-04-16T00:46:51;102539.78;;;7.82;83.12
60437;BME280;46289;51.992;4.498;2023-04-16T00:49:00;102532.81;;;7.80;82.71
60437;BME280;46289;51.992;4.498;2023-04-16T00:51:10;102538.88;;;7.86;82.63
60437;BME280;46289;51.992;4.498;2023-04-16T00:53:21;102534.53;;;7.81;83.11
60437;BME280;46289;51.992;4.498;2023-04-16T00:55:31;102530.16;;;7.89;82.74
60437;BME280;46289;51.992;4.498;2023-04-16T00:57:37;102545.88;;;7.90;82.63
60437;BME280;46289;51.992;4.498;2023-04-16T00:59:42;102538.88;;;7.89;82.92
60437;BME280;46289;51.992;4.498;2023-04-16T01:01:51;102541.50;;;7.82;82.84
60437;BME280;46289;51.992;4.498;2023-04-16T01:04:04;102544.13;;;7.83;82.98
60437;BME280;46289;51.992;4.498;2023-04-16T01:06:19;102538.91;;;7.80;83.10
60437;BME280;46289;51.992;4.498;2023-04-16T01:08:27;102542.38;;;7.79;83.37
60437;BME280;46289;51.992;4.498;2023-04-16T01:10:32;102542.41;;;7.82;83.45
60437;BME280;46289;51.992;4.498;2023-04-16T01:12:54;102545.00;;;7.82;83.09
60437;BME280;46289;51.992;4.498;2023-04-16T01:15:02;102545.00;;;7.84;83.39
60437;BME280;46289;51.992;4.498;2023-04-16T01:17:08;102548.47;;;7.84;83.33
60437;BME280;46289;51.992;4.498;2023-04-16T01:19:15;102542.38;;;7.84;83.60
60437;BME280;46289;51.992;4.498;2023-04-16T01:21:27;102543.25;;;7.81;83.52
60437;BME280;46289;51.992;4.498;2023-04-16T01:23:38;102551.13;;;7.78;83.68
60437;BME280;46289;51.992;4.498;2023-04-16T01:25:50;102548.47;;;7.84;83.28
60437;BME280;46289;51.992;4.498;2023-04-16T01:27:55;102551.97;;;7.82;83.58
60437;BME280;46289;51.992;4.498;2023-04-16T01:30:06;102548.50;;;7.83;83.71
60437;BME280;46289;51.992;4.498;2023-04-16T01:32:21;102535.41;;;7.83;83.71
60437;BME280;46289;51.992;4.498;2023-04-16T01:34:28;102540.66;;;7.78;84.12
60437;BME280;46289;51.992;4.498;2023-04-16T01:37:03;102545.88;;;7.81;83.95
60437;BME280;46289;51.992;4.498;2023-04-16T01:39:09;102548.50;;;7.81;83.89
60437;BME280;46289;51.992;4.498;2023-04-16T01:41:22;102547.59;;;7.79;83.86
60437;BME280;46289;51.992;4.498;2023-04-16T01:43:28;102557.22;;;7.79;83.90
60437;BME280;46289;51.992;4.498;2023-04-16T01:45:41;102549.38;;;7.76;83.82
60437;BME280;46289;51.992;4.498;2023-04-16T01:47:52;102550.25;;;7.73;84.16
60437;BME280;46289;51.992;4.498;2023-04-16T01:50:00;102555.47;;;7.79;84.11
60437;BME280;46289;51.992;4.498;2023-04-16T01:52:10;102551.13;;;7.78;83.92
60437;BME280;46289;51.992;4.498;2023-04-16T01:54:31;102557.19;;;7.82;84.03
60437;BME280;46289;51.992;4.498;2023-04-16T01:56:44;102555.47;;;7.79;83.85
60437;BME280;46289;51.992;4.498;2023-04-16T01:58:51;102556.34;;;7.80;83.57
60437;BME280;46289;51.992;4.498;2023-04-16T02:00:58;102553.75;;;7.70;83.88
60437;BME280;46289;51.992;4.498;2023-04-16T02:03:11;102552.88;;;7.70;83.87
60437;BME280;46289;51.992;4.498;2023-04-16T02:05:28;102558.09;;;7.73;83.64
60437;BME280;46289;51.992;4.498;2023-04-16T02:07:42;102564.19;;;7.74;83.78
60437;BME280;46289;51.992;4.498;2023-04-16T02:09:51;102561.59;;;7.66;84.18
60437;BME280;46289;51.992;4.498;2023-04-16T02:12:03;102565.09;;;7.66;83.99
60437;BME280;46289;51.992;4.498;2023-04-16T02:14:16;102558.13;;;7.67;84.23
60437;BME280;46289;51.992;4.498;2023-04-16T02:16:23;102561.59;;;7.61;84.28
60437;BME280;46289;51.992;4.498;2023-04-16T02:18:28;102569.44;;;7.64;84.09
60437;BME280;46289;51.992;4.498;2023-04-16T02:20:33;102565.06;;;7.63;84.44
60437;BME280;46289;51.992;4.498;2023-04-16T02:22:42;102564.22;;;7.57;84.63
60437;BME280;46289;51.992;4.498;2023-04-16T02:24:49;102566.84;;;7.58;84.56
60437;BME280;46289;51.992;4.498;2023-04-16T02:26:54;102574.66;;;7.55;84.93
60437;BME280;46289;51.992;4.498;2023-04-16T02:28:59;102569.44;;;7.57;84.55
60437;BME280;46289;51.992;4.498;2023-04-16T02:31:04;102573.81;;;7.62;84.92
60437;BME280;46289;51.992;4.498;2023-04-16T02:33:10;102566.84;;;7.60;84.91
60437;BME280;46289;51.992;4.498;2023-04-16T02:35:15;102572.06;;;7.60;84.81
60437;BME280;46289;51.992;4.498;2023-04-16T02:37:20;102572.09;;;7.58;84.70
60437;BME280;46289;51.992;4.498;2023-04-16T02:39:28;102573.81;;;7.56;85.09
60437;BME280;46289;51.992;4.498;2023-04-16T02:41:33;102578.19;;;7.51;85.05
60437;BME280;46289;51.992;4.498;2023-04-16T02:43:39;102578.19;;;7.51;85.18
60437;BME280;46289;51.992;4.498;2023-04-16T02:45:44;102575.56;;;7.51;85.68
60437;BME280;46289;51.992;4.498;2023-04-16T02:47:52;102580.78;;;7.53;85.51
60437;BME280;46289;51.992;4.498;2023-04-16T02:49:57;102577.31;;;7.51;85.69
60437;BME280;46289;51.992;4.498;2023-04-16T02:52:02;102581.66;;;7.50;85.68
60437;BME280;46289;51.992;4.498;2023-04-16T02:54:07;102579.03;;;7.44;85.93
60437;BME280;46289;51.992;4.498;2023-04-16T02:56:15;102572.94;;;7.43;86.12
60437;BME280;46289;51.992;4.498;2023-04-16T02:58:26;102579.03;;;7.42;86.01
60437;BME280;46289;51.992;4.498;2023-04-16T03:00:31;102570.31;;;7.39;86.71
60437;BME280;46289;51.992;4.498;2023-04-16T03:02:39;102577.28;;;7.37;86.97
60437;BME280;46289;51.992;4.498;2023-04-16T03:04:44;102566.84;;;7.41;86.99
60437;BME280;46289;51.992;4.498;2023-04-16T03:06:49;102574.69;;;7.41;87.32
60437;BME280;46289;51.992;4.498;2023-04-16T03:08:54;102579.91;;;7.35;87.67
60437;BME280;46289;51.992;4.498;2023-04-16T03:10:59;102577.31;;;7.32;88.01
60437;BME280;46289;51.992;4.498;2023-04-16T03:13:06;102583.38;;;7.31;88.44
60437;BME280;46289;51.992;4.498;2023-04-16T03:15:11;102587.72;;;7.29;88.46
60437;BME280;46289;51.992;4.498;2023-04-16T03:17:19;102585.16;;;7.32;88.72
60437;BME280;46289;51.992;4.498;2023-04-16T03:19:24;102586.88;;;7.29;88.25
60437;BME280;46289;51.992;4.498;2023-04-16T03:21:29;102586.00;;;7.28;89.00
60437;BME280;46289;51.992;4.498;2023-04-16T03:23:34;102586.84;;;7.24;88.97
60437;BME280;46289;51.992;4.498;2023-04-16T03:25:40;102589.47;;;7.24;89.13
60437;BME280;46289;51.992;4.498;2023-04-16T03:27:49;102591.22;;;7.20;89.38
60437;BME280;46289;51.992;4.498;2023-04-16T03:29:57;102593.84;;;7.19;89.62
60437;BME280;46289;51.992;4.498;2023-04-16T03:32:02;102586.84;;;7.21;90.15
60437;BME280;46289;51.992;4.498;2023-04-16T03:34:07;102585.13;;;7.17;90.13
60437;BME280;46289;51.992;4.498;2023-04-16T03:36:12;102590.34;;;7.18;90.63
60437;BME280;46289;51.992;4.498;2023-04-16T03:38:19;102592.09;;;7.15;91.01
60437;BME280;46289;51.992;4.498;2023-04-16T03:40:29;102580.75;;;7.13;91.34
60437;BME280;46289;51.992;4.498;2023-04-16T03:42:37;102585.13;;;7.20;91.21
60437;BME280;46289;51.992;4.498;2023-04-16T03:44:52;102591.22;;;7.19;91.86
60437;BME280;46289;51.992;4.498;2023-04-16T03:47:05;102579.00;;;7.15;92.16
60437;BME280;46289;51.992;4.498;2023-04-16T03:49:13;102583.38;;;7.14;91.55
60437;BME280;46289;51.992;4.498;2023-04-16T03:51:19;102585.13;;;7.17;91.53
60437;BME280;46289;51.992;4.498;2023-04-16T03:53:24;102585.97;;;7.16;91.98
60437;BME280;46289;51.992;4.498;2023-04-16T03:55:29;102589.47;;;7.19;91.46
60437;BME280;46289;51.992;4.498;2023-04-16T03:57:38;102582.50;;;7.23;91.72
60437;BME280;46289;51.992;4.498;2023-04-16T03:59:43;102589.47;;;7.21;91.67
60437;BME280;46289;51.992;4.498;2023-04-16T04:01:49;102586.00;;;7.22;91.61
60437;BME280;46289;51.992;4.498;2023-04-16T04:03:57;102594.69;;;7.21;91.69
60437;BME280;46289;51.992;4.498;2023-04-16T04:06:06;102588.63;;;7.19;92.13
60437;BME280;46289;51.992;4.498;2023-04-16T04:08:14;102582.50;;;7.20;91.86
60437;BME280;46289;51.992;4.498;2023-04-16T04:10:23;102593.84;;;7.19;91.93
60437;BME280;46289;51.992;4.498;2023-04-16T04:12:30;102580.78;;;7.25;91.58
60437;BME280;46289;51.992;4.498;2023-04-16T04:14:37;102584.25;;;7.21;91.88
60437;BME280;46289;51.992;4.498;2023-04-16T04:16:44;102585.13;;;7.26;91.77
60437;BME280;46289;51.992;4.498;2023-04-16T04:18:54;102579.00;;;7.21;91.38
60437;BME280;46289;51.992;4.498;2023-04-16T04:21:09;102585.97;;;7.20;92.10
60437;BME280;46289;51.992;4.498;2023-04-16T04:23:15;102579.88;;;7.23;92.36
60437;BME280;46289;51.992;4.498;2023-04-16T04:25:23;102588.59;;;7.20;92.03
60437;BME280;46289;51.992;4.498;2023-04-16T04:27:41;102592.97;;;7.21;92.44
60437;BME280;46289;51.992;4.498;2023-04-16T04:29:48;102588.59;;;7.26;92.05
60437;BME280;46289;51.992;4.498;2023-04-16T04:32:07;102592.97;;;7.20;92.22
60437;BME280;46289;51.992;4.498;2023-04-16T04:34:18;102591.22;;;7.25;92.36
60437;BME280;46289;51.992;4.498;2023-04-16T04:36:26;102593.81;;;7.26;92.12
60437;BME280;46289;51.992;4.498;2023-04-16T04:38:31;102592.97;;;7.24;92.24
60437;BME280;46289;51.992;4.498;2023-04-16T04:40:37;102603.44;;;7.31;92.55
60437;BME280;46289;51.992;4.498;2023-04-16T04:42:46;102595.56;;;7.23;92.65
60437;BME280;46289;51.992;4.498;2023-04-16T04:44:57;102598.19;;;7.23;92.50
60437;BME280;46289;51.992;4.498;2023-04-16T04:47:03;102606.03;;;7.23;93.45
60437;BME280;46289;51.992;4.498;2023-04-16T04:49:08;102606.91;;;7.25;93.10
60437;BME280;46289;51.992;4.498;2023-04-16T04:51:13;102603.41;;;7.26;93.28
60437;BME280;46289;51.992;4.498;2023-04-16T04:53:22;102604.31;;;7.28;93.27
60437;BME280;46289;51.992;4.498;2023-04-16T04:55:29;102609.53;;;7.25;93.15
60437;BME280;46289;51.992;4.498;2023-04-16T04:57:35;102608.66;;;7.24;93.00
60437;BME280;46289;51.992;4.498;2023-04-16T04:59:45;102604.31;;;7.31;93.19
60437;BME280;46289;51.992;4.498;2023-04-16T05:01:57;102608.69;;;7.35;93.07
60437;BME280;46289;51.992;4.498;2023-04-16T05:04:07;102616.50;;;7.37;92.77
60437;BME280;46289;51.992;4.498;2023-04-16T05:06:12;102612.16;;;7.34;92.37
60437;BME280;46289;51.992;4.498;2023-04-16T05:08:25;102619.16;;;7.35;92.64
60437;BME280;46289;51.992;4.498;2023-04-16T05:10:31;102620.00;;;7.36;92.42
60437;BME280;46289;51.992;4.498;2023-04-16T05:12:43;102619.13;;;7.41;92.46
60437;BME280;46289;51.992;4.498;2023-04-16T05:14:51;102616.53;;;7.44;92.10
60437;BME280;46289;51.992;4.498;2023-04-16T05:17:06;102627.88;;;7.40;92.05
60437;BME280;46289;51.992;4.498;2023-04-16T05:19:33;102618.28;;;7.48;92.57
60437;BME280;46289;51.992;4.498;2023-04-16T05:21:41;102623.50;;;7.41;92.18
60437;BME280;46289;51.992;4.498;2023-04-16T05:23:52;102622.63;;;7.37;92.55
60437;BME280;46289;51.992;4.498;2023-04-16T05:26:00;102621.78;;;7.43;92.62
60437;BME280;46289;51.992;4.498;2023-04-16T05:28:05;102626.09;;;7.39;92.57
60437;BME280;46289;51.992;4.498;2023-04-16T05:30:13;102627.00;;;7.41;92.58
60437;BME280;46289;51.992;4.498;2023-04-16T05:32:23;102629.63;;;7.43;92.63
60437;BME280;46289;51.992;4.498;2023-04-16T05:34:29;102634.84;;;7.44;92.48
60437;BME280;46289;51.992;4.498;2023-04-16T05:36:42;102638.34;;;7.37;92.79
60437;BME280;46289;51.992;4.498;2023-04-16T05:38:56;102635.72;;;7.37;92.45
60437;BME280;46289;51.992;4.498;2023-04-16T05:41:02;102641.78;;;7.42;92.75
60437;BME280;46289;51.992;4.498;2023-04-16T05:43:09;102637.44;;;7.44;92.44
60437;BME280;46289;51.992;4.498;2023-04-16T05:45:15;102633.09;;;7.46;92.59
60437;BME280;46289;51.992;4.498;2023-04-16T05:47:24;102637.47;;;7.43;92.58
60437;BME280;46289;51.992;4.498;2023-04-16T05:49:30;102639.22;;;7.48;92.51
60437;BME280;46289;51.992;4.498;2023-04-16T05:51:35;102637.47;;;7.51;92.57
60437;BME280;46289;51.992;4.498;2023-04-16T05:53:46;102641.81;;;7.45;92.64
60437;BME280;46289;51.992;4.498;2023-04-16T05:55:58;102645.28;;;7.44;92.76
60437;BME280;46289;51.992;4.498;2023-04-16T05:58:05;102645.28;;;7.41;92.77
60437;BME280;46289;51.992;4.498;2023-04-16T06:00:15;102639.19;;;7.44;92.89
60437;BME280;46289;51.992;4.498;2023-04-16T06:02:23;102638.31;;;7.45;93.05
60437;BME280;46289;51.992;4.498;2023-04-16T06:04:34;102638.31;;;7.46;92.57
60437;BME280;46289;51.992;4.498;2023-04-16T06:06:39;102650.56;;;7.51;92.82
60437;BME280;46289;51.992;4.498;2023-04-16T06:08:44;102637.47;;;7.57;92.83
60437;BME280;46289;51.992;4.498;2023-04-16T06:10:49;102654.91;;;7.61;92.76
60437;BME280;46289;51.992;4.498;2023-04-16T06:12:57;102640.97;;;7.59;92.64
60437;BME280;46289;51.992;4.498;2023-04-16T06:15:03;102650.56;;;7.57;92.63
60437;BME280;46289;51.992;4.498;2023-04-16T06:17:08;102653.19;;;7.64;92.37
60437;BME280;46289;51.992;4.498;2023-04-16T06:19:13;102654.06;;;7.59;92.59
60437;BME280;46289;51.992;4.498;2023-04-16T06:21:19;102653.19;;;7.58;92.85
60437;BME280;46289;51.992;4.498;2023-04-16T06:23:27;102659.28;;;7.65;92.72
60437;BME280;46289;51.992;4.498;2023-04-16T06:25:32;102647.94;;;7.63;92.58
60437;BME280;46289;51.992;4.498;2023-04-16T06:27:37;102658.41;;;7.63;93.23
60437;BME280;46289;51.992;4.498;2023-04-16T06:29:45;102658.38;;;7.52;93.47
60437;BME280;46289;51.992;4.498;2023-04-16T06:31:52;102658.41;;;7.54;93.74
60437;BME280;46289;51.992;4.498;2023-04-16T06:33:57;102661.00;;;7.55;94.09
60437;BME280;46289;51.992;4.498;2023-04-16T06:36:02;102667.97;;;7.52;94.01
60437;BME280;46289;51.992;4.498;2023-04-16T06:38:07;102664.50;;;7.50;94.34
60437;BME280;46289;51.992;4.498;2023-04-16T06:40:12;102669.72;;;7.46;95.18
60437;BME280;46289;51.992;4.498;2023-04-16T06:42:19;102671.44;;;7.41;94.85
60437;BME280;46289;51.992;4.498;2023-04-16T06:44:24;102668.84;;;7.40;95.13
60437;BME280;46289;51.992;4.498;2023-04-16T06:46:34;102676.69;;;7.44;95.32
60437;BME280;46289;51.992;4.498;2023-04-16T06:48:39;102679.31;;;7.46;95.72
60437;BME280;46289;51.992;4.498;2023-04-16T06:50:44;102680.19;;;7.40;96.05
60437;BME280;46289;51.992;4.498;2023-04-16T06:52:49;102681.03;;;7.41;95.92
60437;BME280;46289;51.992;4.498;2023-04-16T06:54:55;102680.19;;;7.40;95.65
60437;BME280;46289;51.992;4.498;2023-04-16T06:57:00;102674.09;;;7.40;96.02
60437;BME280;46289;51.992;4.498;2023-04-16T06:59:11;102688.91;;;7.47;95.96
60437;BME280;46289;51.992;4.498;2023-04-16T07:01:19;102683.66;;;7.42;96.05
60437;BME280;46289;51.992;4.498;2023-04-16T07:03:28;102679.31;;;7.40;95.78
60437;BME280;46289;51.992;4.498;2023-04-16T07:05:39;102680.19;;;7.43;96.20
60437;BME280;46289;51.992;4.498;2023-04-16T07:07:51;102682.81;;;7.46;95.96
60437;BME280;46289;51.992;4.498;2023-04-16T07:10:08;102678.44;;;7.48;96.15
60437;BME280;46289;51.992;4.498;2023-04-16T07:12:14;102686.31;;;7.52;95.48
60437;BME280;46289;51.992;4.498;2023-04-16T07:14:23;102683.69;;;7.55;95.74
60437;BME280;46289;51.992;4.498;2023-04-16T07:16:34;102692.41;;;7.54;95.69
60437;BME280;46289;51.992;4.498;2023-04-16T07:21:15;102689.78;;;7.54;95.83
60437;BME280;46289;51.992;4.498;2023-04-16T07:23:27;102688.06;;;7.62;95.43
60437;BME280;46289;51.992;4.498;2023-04-16T07:25:41;102691.56;;;7.67;95.58
60437;BME280;46289;51.992;4.498;2023-04-16T07:27:51;102690.66;;;7.63;95.07
60437;BME280;46289;51.992;4.498;2023-04-16T07:30:06;102689.81;;;7.67;95.16
60437;BME280;46289;51.992;4.498;2023-04-16T07:32:15;102690.69;;;7.68;95.36
60437;BME280;46289;51.992;4.498;2023-04-16T07:34:34;102692.44;;;7.70;95.09
60437;BME280;46289;51.992;4.498;2023-04-16T07:36:40;102693.28;;;7.71;94.66
60437;BME280;46289;51.992;4.498;2023-04-16T07:38:52;102694.16;;;7.73;94.75
60437;BME280;46289;51.992;4.498;2023-04-16T07:41:00;102695.94;;;7.69;94.56
60437;BME280;46289;51.992;4.498;2023-04-16T07:43:08;102698.53;;;7.71;94.65
60437;BME280;46289;51.992;4.498;2023-04-16T07:45:16;102697.69;;;7.72;94.81
60437;BME280;46289;51.992;4.498;2023-04-16T07:47:28;102703.78;;;7.77;94.08
60437;BME280;46289;51.992;4.498;2023-04-16T07:49:36;102701.16;;;7.71;93.71
60437;BME280;46289;51.992;4.498;2023-04-16T07:51:45;102706.38;;;7.76;94.19
60437;BME280;46289;51.992;4.498;2023-04-16T07:53:52;102709.91;;;7.82;93.89
60437;BME280;46289;51.992;4.498;2023-04-16T07:56:02;102709.03;;;7.83;93.00
60437;BME280;46289;51.992;4.498;2023-04-16T07:58:13;102714.25;;;7.89;93.50
60437;BME280;46289;51.992;4.498;2023-04-16T08:00:19;102717.75;;;7.93;92.75
60437;BME280;46289;51.992;4.498;2023-04-16T08:02:40;102712.50;;;7.91;93.38
60437;BME280;46289;51.992;4.498;2023-04-16T08:04:54;102714.28;;;7.96;92.98
60437;BME280;46289;51.992;4.498;2023-04-16T08:07:19;102716.88;;;7.89;92.58
60437;BME280;46289;51.992;4.498;2023-04-16T08:09:49;102714.28;;;7.93;92.94
60437;BME280;46289;51.992;4.498;2023-04-16T08:12:07;102719.50;;;7.93;92.76
60437;BME280;46289;51.992;4.498;2023-04-16T08:14:13;102727.38;;;8.03;92.76
60437;BME280;46289;51.992;4.498;2023-04-16T08:16:19;102722.97;;;8.05;93.17
60437;BME280;46289;51.992;4.498;2023-04-16T08:18:26;102721.25;;;8.07;92.45
60437;BME280;46289;51.992;4.498;2023-04-16T08:20:34;102738.72;;;8.08;92.74
60437;BME280;46289;51.992;4.498;2023-04-16T08:22:41;102733.47;;;8.05;92.04
60437;BME280;46289;51.992;4.498;2023-04-16T08:24:48;102730.84;;;8.11;92.46
60437;BME280;46289;51.992;4.498;2023-04-16T08:26:53;102734.34;;;8.15;92.87
60437;BME280;46289;51.992;4.498;2023-04-16T08:29:19;102739.56;;;8.21;92.09
60437;BME280;46289;51.992;4.498;2023-04-16T08:31:28;102734.31;;;8.13;91.69
60437;BME280;46289;51.992;4.498;2023-04-16T08:33:33;102737.84;;;8.20;92.14
60437;BME280;46289;51.992;4.498;2023-04-16T08:35:41;102736.94;;;8.32;91.05
60437;BME280;46289;51.992;4.498;2023-04-16T08:37:48;102737.84;;;8.32;91.03
60437;BME280;46289;51.992;4.498;2023-04-16T08:39:54;102743.94;;;8.34;90.76
60437;BME280;46289;51.992;4.498;2023-04-16T08:42:01;102740.44;;;8.37;90.74
60437;BME280;46289;51.992;4.498;2023-04-16T08:44:12;102741.34;;;8.41;91.06
60437;BME280;46289;51.992;4.498;2023-04-16T08:46:21;102739.56;;;8.38;91.27
60437;BME280;46289;51.992;4.498;2023-04-16T08:48:32;102743.09;;;8.29;91.29
60437;BME280;46289;51.992;4.498;2023-04-16T08:50:38;102746.56;;;8.22;91.50
60437;BME280;46289;51.992;4.498;2023-04-16T08:52:49;102755.28;;;8.30;91.63
60437;BME280;46289;51.992;4.498;2023-04-16T08:55:00;102751.78;;;8.34;91.45
60437;BME280;46289;51.992;4.498;2023-04-16T08:57:09;102757.91;;;8.38;90.97
60437;BME280;46289;51.992;4.498;2023-04-16T08:59:15;102762.31;;;8.41;90.76
60437;BME280;46289;51.992;4.498;2023-04-16T09:01:21;102761.44;;;8.42;90.89
60437;BME280;46289;51.992;4.498;2023-04-16T09:03:31;102756.19;;;8.32;91.47
60437;BME280;46289;51.992;4.498;2023-04-16T09:05:38;102756.19;;;8.49;91.42
60437;BME280;46289;51.992;4.498;2023-04-16T09:07:44;102760.56;;;8.46;91.25
60437;BME280;46289;51.992;4.498;2023-04-16T09:09:53;102754.44;;;8.42;90.99
60437;BME280;46289;51.992;4.498;2023-04-16T09:11:59;102764.91;;;8.42;90.95
60437;BME280;46289;51.992;4.498;2023-04-16T09:14:08;102757.06;;;8.42;90.72
60437;BME280;46289;51.992;4.498;2023-04-16T09:16:14;102764.03;;;8.63;90.99
60437;BME280;46289;51.992;4.498;2023-04-16T09:18:20;102755.31;;;8.52;90.47
60437;BME280;46289;51.992;4.498;2023-04-16T09:20:25;102764.94;;;8.45;91.13
60437;BME280;46289;51.992;4.498;2023-04-16T09:22:30;102758.78;;;8.55;90.75
60437;BME280;46289;51.992;4.498;2023-04-16T09:24:35;102766.66;;;8.52;90.67
60437;BME280;46289;51.992;4.498;2023-04-16T09:26:45;102762.28;;;8.61;90.19
60437;BME280;46289;51.992;4.498;2023-04-16T09:28:50;102757.91;;;8.47;90.03
60437;BME280;46289;51.992;4.498;2023-04-16T09:31:07;102764.03;;;8.60;90.17
60437;BME280;46289;51.992;4.498;2023-04-16T09:33:13;102766.63;;;8.68;90.20
60437;BME280;46289;51.992;4.498;2023-04-16T09:35:26;102764.91;;;8.67;89.49
60437;BME280;46289;51.992;4.498;2023-04-16T09:37:31;102771.84;;;8.74;90.32
60437;BME280;46289;51.992;4.498;2023-04-16T09:39:36;102780.63;;;8.70;89.82
60437;BME280;46289;51.992;4.498;2023-04-16T09:41:41;102778.88;;;8.67;89.87
60437;BME280;46289;51.992;4.498;2023-04-16T09:43:54;102774.53;;;8.51;89.83
60437;BME280;46289;51.992;4.498;2023-04-16T09:46:00;102780.63;;;8.54;90.31
60437;BME280;46289;51.992;4.498;2023-04-16T09:48:09;102778.84;;;8.69;90.32
60437;BME280;46289;51.992;4.498;2023-04-16T09:50:37;102780.63;;;8.57;89.81
60437;BME280;46289;51.992;4.498;2023-04-16T09:53:44;102784.09;;;8.73;89.76
60437;BME280;46289;51.992;4.498;2023-04-16T09:56:31;102781.47;;;8.76;89.29
60437;BME280;46289;51.992;4.498;2023-04-16T09:59:44;102785.88;;;8.67;88.98
60437;BME280;46289;51.992;4.498;2023-04-16T10:02:59;102792.88;;;8.51;89.88
60437;BME280;46289;51.992;4.498;2023-04-16T10:06:05;102798.97;;;8.54;90.16
60437;BME280;46289;51.992;4.498;2023-04-16T10:09:18;102795.47;;;8.63;89.85
60437;BME280;46289;51.992;4.498;2023-04-16T10:12:04;102809.44;;;8.71;89.55
60437;BME280;46289;51.992;4.498;2023-04-16T10:17:32;102802.47;;;8.64;90.01
60437;BME280;46289;51.992;4.498;2023-04-16T10:19:51;102800.72;;;8.72;89.63
60437;BME280;46289;51.992;4.498;2023-04-16T10:22:28;102804.22;;;8.74;89.33
60437;BME280;46289;51.992;4.498;2023-04-16T10:24:44;102807.69;;;8.73;89.15
60437;BME280;46289;51.992;4.498;2023-04-16T10:27:26;102807.69;;;8.79;89.40
60437;BME280;46289;51.992;4.498;2023-04-16T10:36:07;102826.06;;;8.55;90.14
60437;BME280;46289;51.992;4.498;2023-04-16T10:39:00;102820.81;;;8.55;89.75
60437;BME280;46289;51.992;4.498;2023-04-16T10:42:08;102819.06;;;8.75;89.22
60437;BME280;46289;51.992;4.498;2023-04-16T10:44:46;102821.69;;;8.63;88.94
60437;BME280;46289;51.992;4.498;2023-04-16T10:47:24;102817.31;;;8.70;88.41
60437;BME280;46289;51.992;4.498;2023-04-16T10:49:52;102820.81;;;8.64;88.85
60437;BME280;46289;51.992;4.498;2023-04-16T10:52:31;102819.91;;;8.76;88.44
60437;BME280;46289;51.992;4.498;2023-04-16T10:54:54;102816.44;;;8.72;88.23
60437;BME280;46289;51.992;4.498;2023-04-16T10:57:48;102821.69;;;8.66;88.96
60437;BME280;46289;51.992;4.498;2023-04-16T11:00:29;102821.69;;;8.66;88.94
60437;BME280;46289;51.992;4.498;2023-04-16T11:09:05;102819.03;;;8.83;88.31
60437;BME280;46289;51.992;4.498;2023-04-16T11:12:03;102823.44;;;8.70;88.06
60437;BME280;46289;51.992;4.498;2023-04-16T11:15:19;102813.78;;;8.98;87.50
60437;BME280;46289;51.992;4.498;2023-04-16T11:18:07;102817.28;;;8.94;87.26
60437;BME280;46289;51.992;4.498;2023-04-16T11:20:55;102827.81;;;8.70;87.94
60437;BME280;46289;51.992;4.498;2023-04-16T11:23:27;102819.06;;;8.66;88.42
60437;BME280;46289;51.992;4.498;2023-04-16T11:26:19;102815.53;;;8.89;88.22
60437;BME280;46289;51.992;4.498;2023-04-16T11:28:33;102812.03;;;8.99;87.56
60437;BME280;46289;51.992;4.498;2023-04-16T11:30:41;102815.53;;;8.93;87.22
60437;BME280;46289;51.992;4.498;2023-04-16T11:32:50;102812.88;;;8.95;87.64
60437;BME280;46289;51.992;4.498;2023-04-16T11:35:08;102812.88;;;9.02;87.42
60437;BME280;46289;51.992;4.498;2023-04-16T11:37:38;102812.88;;;9.07;86.83
60437;BME280;46289;51.992;4.498;2023-04-16T11:39:50;102812.88;;;9.06;86.99
60437;BME280;46289;51.992;4.498;2023-04-16T11:41:58;102810.19;;;9.26;86.71
60437;BME280;46289;51.992;4.498;2023-04-16T11:47:15;102816.38;;;8.97;87.23
60437;BME280;46289;51.992;4.498;2023-04-16T11:49:38;102809.34;;;9.25;86.34
60437;BME280;46289;51.992;4.498;2023-04-16T11:51:58;102816.31;;;9.31;86.15
60437;BME280;46289;51.992;4.498;2023-04-16T11:54:27;102820.69;;;9.26;86.05
60437;BME280;46289;51.992;4.498;2023-04-16T11:56:49;102809.31;;;9.37;85.94
60437;BME280;46289;51.992;4.498;2023-04-16T11:59:10;102821.56;;;9.28;86.31
60437;BME280;46289;51.992;4.498;2023-04-16T12:01:19;102811.88;;;9.43;85.83